sensor_id;sensor_type;location;lat;lon;timestamp;P1;durP1;ratioP1;P2;durP2;ratioP2
62832;SDS011;48891;49.220;6.920;2023-09-12T00:00:33;19.50;;;16.90;;
62832;SDS011;48891;49.220;6.920;2023-09-12T00:02:59;19.80;;;17.77;;
62832;SDS011;48891;49.220;6.920;2023-09-12T00:05:24;21.02;;;18.80;;
62832;SDS011;48891;49.220;6.920;2023-09-12T00:07:51;20.00;;;17.67;;
62832;SDS011;48891;49.220;6.920;2023-09-12T00:10:17;20.60;;;18.00;;
62832;SDS011;48891;49.220;6.920;2023-09-12T00:12:42;19.58;;;17.48;;
62832;SDS011;48891;49.220;6.920;2023-09-12T00:15:07;19.90;;;17.80;;
62832;SDS011;48891;49.220;6.920;2023-09-12T00:17:33;19.95;;;17.80;;
62832;SDS011;48891;49.220;6.920;2023-09-12T00:19:58;20.92;;;17.92;;
62832;SDS011;48891;49.220;6.920;2023-09-12T00:22:24;20.60;;;18.38;;
62832;SDS011;48891;49.220;6.920;2023-09-12T00:24:49;20.95;;;18.08;;
62832;SDS011;48891;49.220;6.920;2023-09-12T00:27:14;21.03;;;18.10;;
62832;SDS011;48891;49.220;6.920;2023-09-12T00:29:39;20.00;;;17.63;;
62832;SDS011;48891;49.220;6.920;2023-09-12T00:32:05;21.10;;;17.63;;
62832;SDS011;48891;49.220;6.920;2023-09-12T00:34:30;20.17;;;17.38;;
62832;SDS011;48891;49.220;6.920;2023-09-12T00:36:55;20.35;;;18.20;;
62832;SDS011;48891;49.220;6.920;2023-09-12T00:39:20;20.00;;;17.90;;
62832;SDS011;48891;49.220;6.920;2023-09-12T00:41:46;20.75;;;18.15;;
62832;SDS011;48891;49.220;6.920;2023-09-12T00:44:11;20.13;;;17.67;;
62832;SDS011;48891;49.220;6.920;2023-09-12T00:46:36;21.10;;;18.85;;
62832;SDS011;48891;49.220;6.920;2023-09-12T00:49:03;19.65;;;17.60;;
62832;SDS011;48891;49.220;6.920;2023-09-12T00:51:31;19.25;;;17.20;;
62832;SDS011;48891;49.220;6.920;2023-09-12T00:53:57;20.30;;;18.10;;
62832;SDS011;48891;49.220;6.920;2023-09-12T00:56:23;20.90;;;18.65;;
62832;SDS011;48891;49.220;6.920;2023-09-12T00:58:48;19.50;;;17.40;;
62832;SDS011;48891;49.220;6.920;2023-09-12T01:01:14;21.23;;;18.88;;
62832;SDS011;48891;49.220;6.920;2023-09-12T01:03:39;19.97;;;17.50;;
62832;SDS011;48891;49.220;6.920;2023-09-12T01:06:04;19.60;;;17.48;;
62832;SDS011;48891;49.220;6.920;2023-09-12T01:08:31;20.10;;;18.10;;
62832;SDS011;48891;49.220;6.920;2023-09-12T01:10:57;19.55;;;17.42;;
62832;SDS011;48891;49.220;6.920;2023-09-12T01:13:23;21.00;;;18.40;;
62832;SDS011;48891;49.220;6.920;2023-09-12T01:15:48;20.05;;;17.88;;
62832;SDS011;48891;49.220;6.920;2023-09-12T01:18:14;20.67;;;18.27;;
62832;SDS011;48891;49.220;6.920;2023-09-12T01:20:39;19.90;;;17.75;;
62832;SDS011;48891;49.220;6.920;2023-09-12T01:26:12;21.13;;;18.50;;
62832;SDS011;48891;49.220;6.920;2023-09-12T01:28:50;20.60;;;18.40;;
62832;SDS011;48891;49.220;6.920;2023-09-12T01:31:16;19.98;;;17.70;;
62832;SDS011;48891;49.220;6.920;2023-09-12T01:33:42;21.48;;;18.42;;
62832;SDS011;48891;49.220;6.920;2023-09-12T01:36:09;20.77;;;17.40;;
62832;SDS011;48891;49.220;6.920;2023-09-12T01:38:35;18.75;;;16.75;;
62832;SDS011;48891;49.220;6.920;2023-09-12T01:41:00;21.52;;;19.13;;
62832;SDS011;48891;49.220;6.920;2023-09-12T01:43:26;21.10;;;18.30;;
62832;SDS011;48891;49.220;6.920;2023-09-12T01:45:53;20.48;;;17.35;;
62832;SDS011;48891;49.220;6.920;2023-09-12T01:50:47;20.05;;;17.92;;
62832;SDS011;48891;49.220;6.920;2023-09-12T01:53:13;20.85;;;18.00;;
62832;SDS011;48891;49.220;6.920;2023-09-12T01:55:41;19.92;;;17.77;;
62832;SDS011;48891;49.220;6.920;2023-09-12T01:58:08;20.77;;;18.45;;
62832;SDS011;48891;49.220;6.920;2023-09-12T02:00:33;20.77;;;18.42;;
62832;SDS011;48891;49.220;6.920;2023-09-12T02:02:59;21.45;;;18.80;;
62832;SDS011;48891;49.220;6.920;2023-09-12T02:05:24;20.50;;;18.33;;
62832;SDS011;48891;49.220;6.920;2023-09-12T02:07:50;21.02;;;18.58;;
62832;SDS011;48891;49.220;6.920;2023-09-12T02:10:15;20.05;;;17.50;;
62832;SDS011;48891;49.220;6.920;2023-09-12T02:12:40;19.77;;;17.73;;
62832;SDS011;48891;49.220;6.920;2023-09-12T02:15:06;20.67;;;18.48;;
62832;SDS011;48891;49.220;6.920;2023-09-12T02:17:32;23.38;;;19.13;;
62832;SDS011;48891;49.220;6.920;2023-09-12T02:19:58;20.73;;;18.52;;
62832;SDS011;48891;49.220;6.920;2023-09-12T02:22:23;19.80;;;17.67;;
62832;SDS011;48891;49.220;6.920;2023-09-12T02:24:48;19.98;;;17.85;;
62832;SDS011;48891;49.220;6.920;2023-09-12T02:27:14;20.55;;;17.35;;
62832;SDS011;48891;49.220;6.920;2023-09-12T02:29:39;19.40;;;17.37;;
62832;SDS011;48891;49.220;6.920;2023-09-12T02:32:06;20.15;;;17.45;;
62832;SDS011;48891;49.220;6.920;2023-09-12T02:34:32;19.90;;;17.75;;
62832;SDS011;48891;49.220;6.920;2023-09-12T02:36:58;19.73;;;17.70;;
62832;SDS011;48891;49.220;6.920;2023-09-12T02:39:23;20.92;;;18.60;;
62832;SDS011;48891;49.220;6.920;2023-09-12T02:41:48;21.27;;;18.83;;
62832;SDS011;48891;49.220;6.920;2023-09-12T02:44:13;20.03;;;17.93;;
62832;SDS011;48891;49.220;6.920;2023-09-12T02:46:39;19.00;;;16.90;;
62832;SDS011;48891;49.220;6.920;2023-09-12T02:49:04;19.63;;;17.53;;
62832;SDS011;48891;49.220;6.920;2023-09-12T02:51:29;20.00;;;17.40;;
62832;SDS011;48891;49.220;6.920;2023-09-12T02:53:55;21.05;;;17.77;;
62832;SDS011;48891;49.220;6.920;2023-09-12T02:56:20;19.17;;;16.95;;
62832;SDS011;48891;49.220;6.920;2023-09-12T02:58:48;19.97;;;17.20;;
62832;SDS011;48891;49.220;6.920;2023-09-12T03:01:15;21.38;;;17.35;;
62832;SDS011;48891;49.220;6.920;2023-09-12T03:03:40;18.65;;;16.65;;
62832;SDS011;48891;49.220;6.920;2023-09-12T03:06:06;19.40;;;17.00;;
62832;SDS011;48891;49.220;6.920;2023-09-12T03:08:31;19.48;;;17.35;;
62832;SDS011;48891;49.220;6.920;2023-09-12T03:10:56;18.95;;;16.67;;
62832;SDS011;48891;49.220;6.920;2023-09-12T03:13:25;19.58;;;17.08;;
62832;SDS011;48891;49.220;6.920;2023-09-12T03:15:50;19.38;;;17.30;;
62832;SDS011;48891;49.220;6.920;2023-09-12T03:18:16;18.65;;;16.65;;
62832;SDS011;48891;49.220;6.920;2023-09-12T03:20:41;19.93;;;17.60;;
62832;SDS011;48891;49.220;6.920;2023-09-12T03:23:06;19.33;;;17.33;;
62832;SDS011;48891;49.220;6.920;2023-09-12T03:25:35;19.00;;;16.93;;
62832;SDS011;48891;49.220;6.920;2023-09-12T03:28:01;20.08;;;17.85;;
62832;SDS011;48891;49.220;6.920;2023-09-12T03:30:27;18.92;;;16.75;;
62832;SDS011;48891;49.220;6.920;2023-09-12T03:32:52;18.27;;;16.27;;
62832;SDS011;48891;49.220;6.920;2023-09-12T03:35:17;19.25;;;16.60;;
62832;SDS011;48891;49.220;6.920;2023-09-12T03:37:43;18.20;;;16.30;;
62832;SDS011;48891;49.220;6.920;2023-09-12T03:40:08;20.55;;;17.38;;
62832;SDS011;48891;49.220;6.920;2023-09-12T03:42:34;19.75;;;17.08;;
62832;SDS011;48891;49.220;6.920;2023-09-12T03:45:00;19.55;;;17.45;;
62832;SDS011;48891;49.220;6.920;2023-09-12T03:47:25;19.98;;;17.88;;
62832;SDS011;48891;49.220;6.920;2023-09-12T03:49:51;19.90;;;16.80;;
62832;SDS011;48891;49.220;6.920;2023-09-12T03:52:16;18.90;;;16.85;;
62832;SDS011;48891;49.220;6.920;2023-09-12T03:54:41;19.17;;;16.70;;
62832;SDS011;48891;49.220;6.920;2023-09-12T03:57:06;19.57;;;17.47;;
62832;SDS011;48891;49.220;6.920;2023-09-12T03:59:32;18.52;;;16.60;;
62832;SDS011;48891;49.220;6.920;2023-09-12T04:01:57;19.08;;;17.00;;
62832;SDS011;48891;49.220;6.920;2023-09-12T04:04:23;19.13;;;17.03;;
62832;SDS011;48891;49.220;6.920;2023-09-12T04:06:48;18.90;;;16.43;;
62832;SDS011;48891;49.220;6.920;2023-09-12T04:09:13;19.42;;;16.95;;
62832;SDS011;48891;49.220;6.920;2023-09-12T04:11:38;19.10;;;17.05;;
62832;SDS011;48891;49.220;6.920;2023-09-12T04:14:04;17.83;;;15.93;;
62832;SDS011;48891;49.220;6.920;2023-09-12T04:16:29;19.27;;;17.23;;
62832;SDS011;48891;49.220;6.920;2023-09-12T04:18:54;20.23;;;17.25;;
62832;SDS011;48891;49.220;6.920;2023-09-12T04:21:19;19.07;;;17.07;;
62832;SDS011;48891;49.220;6.920;2023-09-12T04:23:45;19.33;;;17.10;;
62832;SDS011;48891;49.220;6.920;2023-09-12T04:26:10;18.10;;;16.20;;
62832;SDS011;48891;49.220;6.920;2023-09-12T04:28:35;19.90;;;16.75;;
62832;SDS011;48891;49.220;6.920;2023-09-12T04:31:01;20.13;;;17.50;;
62832;SDS011;48891;49.220;6.920;2023-09-12T04:33:27;18.75;;;16.75;;
62832;SDS011;48891;49.220;6.920;2023-09-12T04:35:53;18.77;;;16.40;;
62832;SDS011;48891;49.220;6.920;2023-09-12T04:38:18;19.37;;;17.03;;
62832;SDS011;48891;49.220;6.920;2023-09-12T04:40:43;19.73;;;17.20;;
62832;SDS011;48891;49.220;6.920;2023-09-12T04:43:18;19.90;;;16.98;;
62832;SDS011;48891;49.220;6.920;2023-09-12T04:45:43;19.03;;;17.03;;
62832;SDS011;48891;49.220;6.920;2023-09-12T04:48:08;19.77;;;17.67;;
62832;SDS011;48891;49.220;6.920;2023-09-12T04:50:34;19.67;;;17.57;;
62832;SDS011;48891;49.220;6.920;2023-09-12T04:53:06;19.73;;;16.83;;
62832;SDS011;48891;49.220;6.920;2023-09-12T04:55:31;20.88;;;17.52;;
62832;SDS011;48891;49.220;6.920;2023-09-12T04:57:56;20.93;;;17.87;;
62832;SDS011;48891;49.220;6.920;2023-09-12T05:00:22;20.33;;;16.50;;
62832;SDS011;48891;49.220;6.920;2023-09-12T05:02:47;20.30;;;17.57;;
62832;SDS011;48891;49.220;6.920;2023-09-12T05:05:12;20.07;;;17.10;;
62832;SDS011;48891;49.220;6.920;2023-09-12T05:07:37;20.50;;;16.27;;
62832;SDS011;48891;49.220;6.920;2023-09-12T05:10:03;18.97;;;15.97;;
62832;SDS011;48891;49.220;6.920;2023-09-12T05:12:28;18.50;;;16.50;;
62832;SDS011;48891;49.220;6.920;2023-09-12T05:14:53;18.93;;;16.63;;
62832;SDS011;48891;49.220;6.920;2023-09-12T05:17:19;19.85;;;17.38;;
62832;SDS011;48891;49.220;6.920;2023-09-12T05:19:44;19.65;;;16.98;;
62832;SDS011;48891;49.220;6.920;2023-09-12T05:22:09;20.13;;;16.80;;
62832;SDS011;48891;49.220;6.920;2023-09-12T05:24:34;19.08;;;16.75;;
62832;SDS011;48891;49.220;6.920;2023-09-12T05:27:00;21.20;;;17.57;;
62832;SDS011;48891;49.220;6.920;2023-09-12T05:29:25;17.87;;;15.77;;
62832;SDS011;48891;49.220;6.920;2023-09-12T05:31:50;18.63;;;16.60;;
62832;SDS011;48891;49.220;6.920;2023-09-12T05:34:15;18.10;;;15.63;;
62832;SDS011;48891;49.220;6.920;2023-09-12T05:36:41;18.98;;;16.73;;
62832;SDS011;48891;49.220;6.920;2023-09-12T05:39:06;19.47;;;16.93;;
62832;SDS011;48891;49.220;6.920;2023-09-12T05:41:31;18.53;;;16.30;;
62832;SDS011;48891;49.220;6.920;2023-09-12T05:43:56;20.33;;;16.73;;
62832;SDS011;48891;49.220;6.920;2023-09-12T05:46:22;18.27;;;16.30;;
62832;SDS011;48891;49.220;6.920;2023-09-12T05:48:47;20.42;;;16.83;;
62832;SDS011;48891;49.220;6.920;2023-09-12T05:51:13;18.73;;;16.50;;
62832;SDS011;48891;49.220;6.920;2023-09-12T05:53:38;18.88;;;16.73;;
62832;SDS011;48891;49.220;6.920;2023-09-12T05:56:03;18.97;;;16.63;;
62832;SDS011;48891;49.220;6.920;2023-09-12T05:58:28;19.10;;;16.87;;
62832;SDS011;48891;49.220;6.920;2023-09-12T06:00:54;18.50;;;16.33;;
62832;SDS011;48891;49.220;6.920;2023-09-12T06:03:19;18.17;;;16.02;;
62832;SDS011;48891;49.220;6.920;2023-09-12T06:05:44;18.40;;;16.30;;
62832;SDS011;48891;49.220;6.920;2023-09-12T06:08:09;19.10;;;15.70;;
62832;SDS011;48891;49.220;6.920;2023-09-12T06:10:35;17.75;;;15.85;;
62832;SDS011;48891;49.220;6.920;2023-09-12T06:13:00;19.37;;;16.50;;
62832;SDS011;48891;49.220;6.920;2023-09-12T06:15:25;17.80;;;15.85;;
62832;SDS011;48891;49.220;6.920;2023-09-12T06:17:50;19.43;;;16.70;;
62832;SDS011;48891;49.220;6.920;2023-09-12T06:20:16;19.23;;;16.08;;
62832;SDS011;48891;49.220;6.920;2023-09-12T06:22:41;17.58;;;15.68;;
62832;SDS011;48891;49.220;6.920;2023-09-12T06:25:06;19.73;;;16.53;;
62832;SDS011;48891;49.220;6.920;2023-09-12T06:27:32;18.65;;;16.60;;
62832;SDS011;48891;49.220;6.920;2023-09-12T06:29:57;17.43;;;15.63;;
62832;SDS011;48891;49.220;6.920;2023-09-12T06:32:22;17.77;;;15.87;;
62832;SDS011;48891;49.220;6.920;2023-09-12T06:34:48;18.35;;;15.85;;
62832;SDS011;48891;49.220;6.920;2023-09-12T06:37:13;19.70;;;16.67;;
62832;SDS011;48891;49.220;6.920;2023-09-12T06:39:38;16.42;;;14.70;;
62832;SDS011;48891;49.220;6.920;2023-09-12T06:42:04;17.60;;;15.63;;
62832;SDS011;48891;49.220;6.920;2023-09-12T06:44:29;18.63;;;16.17;;
62832;SDS011;48891;49.220;6.920;2023-09-12T06:46:55;17.33;;;15.33;;
62832;SDS011;48891;49.220;6.920;2023-09-12T06:49:20;18.70;;;16.40;;
62832;SDS011;48891;49.220;6.920;2023-09-12T06:51:45;17.40;;;15.50;;
62832;SDS011;48891;49.220;6.920;2023-09-12T06:54:10;18.67;;;15.97;;
62832;SDS011;48891;49.220;6.920;2023-09-12T06:56:36;17.33;;;15.10;;
62832;SDS011;48891;49.220;6.920;2023-09-12T06:59:01;16.70;;;14.90;;
62832;SDS011;48891;49.220;6.920;2023-09-12T07:01:26;19.10;;;16.23;;
62832;SDS011;48891;49.220;6.920;2023-09-12T07:03:52;18.50;;;15.13;;
62832;SDS011;48891;49.220;6.920;2023-09-12T07:06:17;16.65;;;14.88;;
62832;SDS011;48891;49.220;6.920;2023-09-12T07:08:42;19.33;;;15.10;;
62832;SDS011;48891;49.220;6.920;2023-09-12T07:11:07;17.52;;;15.27;;
62832;SDS011;48891;49.220;6.920;2023-09-12T07:13:32;16.50;;;14.70;;
62832;SDS011;48891;49.220;6.920;2023-09-12T07:15:58;17.90;;;15.85;;
62832;SDS011;48891;49.220;6.920;2023-09-12T07:18:24;17.67;;;15.30;;
62832;SDS011;48891;49.220;6.920;2023-09-12T07:20:59;16.00;;;14.05;;
62832;SDS011;48891;49.220;6.920;2023-09-12T07:23:26;16.53;;;13.83;;
62832;SDS011;48891;49.220;6.920;2023-09-12T07:25:52;16.63;;;14.35;;
62832;SDS011;48891;49.220;6.920;2023-09-12T07:28:18;17.75;;;15.10;;
62832;SDS011;48891;49.220;6.920;2023-09-12T07:30:46;16.90;;;14.85;;
62832;SDS011;48891;49.220;6.920;2023-09-12T07:33:12;16.25;;;14.55;;
62832;SDS011;48891;49.220;6.920;2023-09-12T07:35:37;16.95;;;14.95;;
62832;SDS011;48891;49.220;6.920;2023-09-12T07:38:03;18.38;;;14.85;;
62832;SDS011;48891;49.220;6.920;2023-09-12T07:40:28;16.35;;;14.40;;
62832;SDS011;48891;49.220;6.920;2023-09-12T07:42:54;17.57;;;14.67;;
62832;SDS011;48891;49.220;6.920;2023-09-12T07:45:20;17.38;;;14.40;;
62832;SDS011;48891;49.220;6.920;2023-09-12T07:47:45;17.73;;;14.52;;
62832;SDS011;48891;49.220;6.920;2023-09-12T07:50:11;17.35;;;15.05;;
62832;SDS011;48891;49.220;6.920;2023-09-12T07:52:36;17.13;;;15.00;;
62832;SDS011;48891;49.220;6.920;2023-09-12T07:55:01;16.60;;;14.23;;
62832;SDS011;48891;49.220;6.920;2023-09-12T07:57:28;16.33;;;14.52;;
62832;SDS011;48891;49.220;6.920;2023-09-12T07:59:54;17.27;;;15.18;;
62832;SDS011;48891;49.220;6.920;2023-09-12T08:02:20;16.85;;;14.95;;
62832;SDS011;48891;49.220;6.920;2023-09-12T08:04:45;16.20;;;14.30;;
62832;SDS011;48891;49.220;6.920;2023-09-12T08:07:10;18.50;;;15.47;;
62832;SDS011;48891;49.220;6.920;2023-09-12T08:09:49;16.73;;;14.73;;
62832;SDS011;48891;49.220;6.920;2023-09-12T08:12:16;15.98;;;14.27;;
62832;SDS011;48891;49.220;6.920;2023-09-12T08:14:43;17.15;;;14.82;;
62832;SDS011;48891;49.220;6.920;2023-09-12T08:17:09;15.47;;;13.77;;
62832;SDS011;48891;49.220;6.920;2023-09-12T08:19:34;16.25;;;13.95;;
62832;SDS011;48891;49.220;6.920;2023-09-12T08:21:59;14.73;;;13.13;;
62832;SDS011;48891;49.220;6.920;2023-09-12T08:24:24;16.30;;;14.30;;
62832;SDS011;48891;49.220;6.920;2023-09-12T08:26:50;17.47;;;14.40;;
62832;SDS011;48891;49.220;6.920;2023-09-12T08:29:15;16.47;;;13.50;;
62832;SDS011;48891;49.220;6.920;2023-09-12T08:31:40;14.75;;;13.18;;
62832;SDS011;48891;49.220;6.920;2023-09-12T08:34:05;16.63;;;14.13;;
62832;SDS011;48891;49.220;6.920;2023-09-12T08:36:31;15.17;;;13.57;;
62832;SDS011;48891;49.220;6.920;2023-09-12T08:38:56;16.37;;;13.80;;
62832;SDS011;48891;49.220;6.920;2023-09-12T08:41:21;16.13;;;14.27;;
62832;SDS011;48891;49.220;6.920;2023-09-12T08:43:47;15.50;;;13.83;;
62832;SDS011;48891;49.220;6.920;2023-09-12T08:46:13;14.63;;;13.13;;
62832;SDS011;48891;49.220;6.920;2023-09-12T08:48:40;15.20;;;12.95;;
62832;SDS011;48891;49.220;6.920;2023-09-12T08:51:06;16.48;;;13.40;;
62832;SDS011;48891;49.220;6.920;2023-09-12T08:53:32;16.10;;;14.02;;
62832;SDS011;48891;49.220;6.920;2023-09-12T08:55:58;15.80;;;13.48;;
62832;SDS011;48891;49.220;6.920;2023-09-12T08:58:23;15.40;;;13.32;;
62832;SDS011;48891;49.220;6.920;2023-09-12T09:00:50;14.98;;;13.27;;
62832;SDS011;48891;49.220;6.920;2023-09-12T09:03:16;14.52;;;13.02;;
62832;SDS011;48891;49.220;6.920;2023-09-12T09:05:43;15.23;;;13.25;;
62832;SDS011;48891;49.220;6.920;2023-09-12T09:08:10;15.43;;;13.82;;
62832;SDS011;48891;49.220;6.920;2023-09-12T09:10:37;17.10;;;14.40;;
62832;SDS011;48891;49.220;6.920;2023-09-12T09:13:03;15.40;;;13.47;;
62832;SDS011;48891;49.220;6.920;2023-09-12T09:15:29;15.82;;;13.20;;
62832;SDS011;48891;49.220;6.920;2023-09-12T09:17:56;15.60;;;13.25;;
62832;SDS011;48891;49.220;6.920;2023-09-12T09:20:32;14.40;;;12.90;;
62832;SDS011;48891;49.220;6.920;2023-09-12T09:22:59;14.32;;;12.55;;
62832;SDS011;48891;49.220;6.920;2023-09-12T09:25:26;14.27;;;12.77;;
62832;SDS011;48891;49.220;6.920;2023-09-12T09:27:52;14.40;;;12.80;;
62832;SDS011;48891;49.220;6.920;2023-09-12T09:30:18;13.90;;;12.43;;
62832;SDS011;48891;49.220;6.920;2023-09-12T09:33:02;16.10;;;12.68;;
62832;SDS011;48891;49.220;6.920;2023-09-12T09:35:28;14.52;;;12.77;;
62832;SDS011;48891;49.220;6.920;2023-09-12T09:37:53;14.10;;;12.60;;
62832;SDS011;48891;49.220;6.920;2023-09-12T09:40:19;14.35;;;12.75;;
62832;SDS011;48891;49.220;6.920;2023-09-12T09:42:47;13.95;;;12.45;;
62832;SDS011;48891;49.220;6.920;2023-09-12T09:45:19;14.65;;;12.02;;
62832;SDS011;48891;49.220;6.920;2023-09-12T09:47:44;14.75;;;12.52;;
62832;SDS011;48891;49.220;6.920;2023-09-12T09:50:13;15.25;;;12.38;;
62832;SDS011;48891;49.220;6.920;2023-09-12T09:52:39;13.52;;;11.90;;
62832;SDS011;48891;49.220;6.920;2023-09-12T09:55:06;13.85;;;12.30;;
62832;SDS011;48891;49.220;6.920;2023-09-12T09:57:36;14.82;;;13.20;;
62832;SDS011;48891;49.220;6.920;2023-09-12T10:00:02;15.25;;;12.05;;
62832;SDS011;48891;49.220;6.920;2023-09-12T10:02:27;14.18;;;12.52;;
62832;SDS011;48891;49.220;6.920;2023-09-12T10:04:54;14.80;;;12.75;;
62832;SDS011;48891;49.220;6.920;2023-09-12T10:07:21;13.65;;;12.15;;
62832;SDS011;48891;49.220;6.920;2023-09-12T10:09:47;13.32;;;11.93;;
62832;SDS011;48891;49.220;6.920;2023-09-12T10:12:12;14.00;;;12.50;;
62832;SDS011;48891;49.220;6.920;2023-09-12T10:14:38;14.48;;;12.27;;
62832;SDS011;48891;49.220;6.920;2023-09-12T10:17:05;14.32;;;12.15;;
62832;SDS011;48891;49.220;6.920;2023-09-12T10:19:43;13.80;;;11.13;;
62832;SDS011;48891;49.220;6.920;2023-09-12T10:22:29;13.95;;;12.18;;
62832;SDS011;48891;49.220;6.920;2023-09-12T10:24:59;14.07;;;12.27;;
62832;SDS011;48891;49.220;6.920;2023-09-12T10:27:25;14.35;;;12.75;;
62832;SDS011;48891;49.220;6.920;2023-09-12T10:29:51;13.88;;;12.38;;
62832;SDS011;48891;49.220;6.920;2023-09-12T10:32:17;13.38;;;11.98;;
62832;SDS011;48891;49.220;6.920;2023-09-12T10:34:44;14.45;;;12.30;;
62832;SDS011;48891;49.220;6.920;2023-09-12T10:37:09;15.43;;;12.68;;
62832;SDS011;48891;49.220;6.920;2023-09-12T10:39:35;13.15;;;11.75;;
62832;SDS011;48891;49.220;6.920;2023-09-12T10:42:00;14.20;;;12.35;;
62832;SDS011;48891;49.220;6.920;2023-09-12T10:44:30;12.82;;;11.48;;
62832;SDS011;48891;49.220;6.920;2023-09-12T10:46:55;13.95;;;12.25;;
62832;SDS011;48891;49.220;6.920;2023-09-12T10:49:23;13.23;;;11.60;;
62832;SDS011;48891;49.220;6.920;2023-09-12T10:51:49;13.95;;;11.85;;
62832;SDS011;48891;49.220;6.920;2023-09-12T10:54:56;13.32;;;11.80;;
62832;SDS011;48891;49.220;6.920;2023-09-12T10:57:04;13.13;;;11.73;;
62832;SDS011;48891;49.220;6.920;2023-09-12T10:59:34;12.40;;;11.10;;
62832;SDS011;48891;49.220;6.920;2023-09-12T11:04:54;12.85;;;11.32;;
62832;SDS011;48891;49.220;6.920;2023-09-12T11:12:40;13.52;;;12.05;;
62832;SDS011;48891;49.220;6.920;2023-09-12T11:15:07;13.10;;;11.27;;
62832;SDS011;48891;49.220;6.920;2023-09-12T11:17:39;12.32;;;11.02;;
62832;SDS011;48891;49.220;6.920;2023-09-12T11:20:06;12.80;;;11.30;;
62832;SDS011;48891;49.220;6.920;2023-09-12T11:22:32;12.52;;;11.20;;
62832;SDS011;48891;49.220;6.920;2023-09-12T11:25:01;12.82;;;11.18;;
62832;SDS011;48891;49.220;6.920;2023-09-12T11:30:24;13.13;;;11.52;;
62832;SDS011;48891;49.220;6.920;2023-09-12T11:32:50;12.52;;;10.77;;
62832;SDS011;48891;49.220;6.920;2023-09-12T11:35:16;12.15;;;10.77;;
62832;SDS011;48891;49.220;6.920;2023-09-12T11:38:02;11.60;;;10.18;;
62832;SDS011;48891;49.220;6.920;2023-09-12T11:42:59;13.02;;;11.55;;
62832;SDS011;48891;49.220;6.920;2023-09-12T11:45:25;12.57;;;10.32;;
62832;SDS011;48891;49.220;6.920;2023-09-12T11:47:51;12.07;;;10.85;;
62832;SDS011;48891;49.220;6.920;2023-09-12T11:52:58;12.52;;;11.00;;
62832;SDS011;48891;49.220;6.920;2023-09-12T11:55:24;12.65;;;10.77;;
62832;SDS011;48891;49.220;6.920;2023-09-12T11:57:49;12.30;;;11.00;;
62832;SDS011;48891;49.220;6.920;2023-09-12T12:00:15;12.50;;;11.20;;
62832;SDS011;48891;49.220;6.920;2023-09-12T12:02:41;12.57;;;11.18;;
62832;SDS011;48891;49.220;6.920;2023-09-12T12:05:08;11.02;;;9.93;;
62832;SDS011;48891;49.220;6.920;2023-09-12T12:07:34;11.82;;;10.48;;
62832;SDS011;48891;49.220;6.920;2023-09-12T12:09:59;11.57;;;10.38;;
62832;SDS011;48891;49.220;6.920;2023-09-12T12:12:24;11.57;;;10.27;;
62832;SDS011;48891;49.220;6.920;2023-09-12T12:14:50;11.73;;;10.43;;
62832;SDS011;48891;49.220;6.920;2023-09-12T12:17:15;12.38;;;10.63;;
62832;SDS011;48891;49.220;6.920;2023-09-12T12:19:44;12.50;;;10.85;;
62832;SDS011;48891;49.220;6.920;2023-09-12T12:22:10;11.48;;;10.27;;
62832;SDS011;48891;49.220;6.920;2023-09-12T12:27:09;11.23;;;10.13;;
62832;SDS011;48891;49.220;6.920;2023-09-12T12:29:34;12.40;;;11.10;;
62832;SDS011;48891;49.220;6.920;2023-09-12T12:32:01;11.30;;;10.10;;
62832;SDS011;48891;49.220;6.920;2023-09-12T12:34:27;12.30;;;10.85;;
62832;SDS011;48891;49.220;6.920;2023-09-12T12:36:53;12.30;;;10.27;;
62832;SDS011;48891;49.220;6.920;2023-09-12T12:39:20;11.32;;;10.10;;
62832;SDS011;48891;49.220;6.920;2023-09-12T12:41:46;11.57;;;10.13;;
62832;SDS011;48891;49.220;6.920;2023-09-12T12:44:11;12.38;;;10.20;;
62832;SDS011;48891;49.220;6.920;2023-09-12T12:46:47;11.52;;;10.32;;
62832;SDS011;48891;49.220;6.920;2023-09-12T12:49:14;11.50;;;9.57;;
62832;SDS011;48891;49.220;6.920;2023-09-12T12:51:41;11.77;;;10.20;;
62832;SDS011;48891;49.220;6.920;2023-09-12T12:54:07;10.83;;;9.73;;
62832;SDS011;48891;49.220;6.920;2023-09-12T12:56:33;11.63;;;9.80;;
62832;SDS011;48891;49.220;6.920;2023-09-12T12:58:59;10.90;;;9.60;;
62832;SDS011;48891;49.220;6.920;2023-09-12T13:01:25;12.07;;;10.35;;
62832;SDS011;48891;49.220;6.920;2023-09-12T13:03:50;11.23;;;10.03;;
62832;SDS011;48891;49.220;6.920;2023-09-12T13:06:17;11.48;;;9.75;;
62832;SDS011;48891;49.220;6.920;2023-09-12T13:08:43;11.25;;;10.05;;
62832;SDS011;48891;49.220;6.920;2023-09-12T13:11:10;10.50;;;9.40;;
62832;SDS011;48891;49.220;6.920;2023-09-12T13:13:36;11.32;;;9.52;;
62832;SDS011;48891;49.220;6.920;2023-09-12T13:16:03;11.23;;;10.02;;
62832;SDS011;48891;49.220;6.920;2023-09-12T13:18:33;11.00;;;9.80;;
62832;SDS011;48891;49.220;6.920;2023-09-12T13:20:59;10.52;;;9.20;;
62832;SDS011;48891;49.220;6.920;2023-09-12T13:23:24;11.05;;;9.43;;
62832;SDS011;48891;49.220;6.920;2023-09-12T13:25:50;10.60;;;9.50;;
62832;SDS011;48891;49.220;6.920;2023-09-12T13:28:15;10.45;;;9.35;;
62832;SDS011;48891;49.220;6.920;2023-09-12T13:30:41;11.65;;;9.45;;
62832;SDS011;48891;49.220;6.920;2023-09-12T13:33:06;11.48;;;9.82;;
62832;SDS011;48891;49.220;6.920;2023-09-12T13:35:32;10.15;;;9.13;;
62832;SDS011;48891;49.220;6.920;2023-09-12T13:37:57;10.45;;;9.35;;
62832;SDS011;48891;49.220;6.920;2023-09-12T13:40:22;11.07;;;9.80;;
62832;SDS011;48891;49.220;6.920;2023-09-12T13:42:48;10.37;;;9.17;;
62832;SDS011;48891;49.220;6.920;2023-09-12T13:45:13;10.90;;;9.50;;
62832;SDS011;48891;49.220;6.920;2023-09-12T13:47:38;10.63;;;9.52;;
62832;SDS011;48891;49.220;6.920;2023-09-12T13:50:04;10.57;;;9.23;;
62832;SDS011;48891;49.220;6.920;2023-09-12T13:52:30;10.55;;;9.27;;
62832;SDS011;48891;49.220;6.920;2023-09-12T13:54:55;10.70;;;9.30;;
62832;SDS011;48891;49.220;6.920;2023-09-12T13:57:20;11.17;;;9.50;;
62832;SDS011;48891;49.220;6.920;2023-09-12T13:59:46;11.32;;;8.98;;
62832;SDS011;48891;49.220;6.920;2023-09-12T14:02:11;10.50;;;9.13;;
62832;SDS011;48891;49.220;6.920;2023-09-12T14:04:36;11.13;;;9.77;;
62832;SDS011;48891;49.220;6.920;2023-09-12T14:07:01;10.87;;;8.97;;
62832;SDS011;48891;49.220;6.920;2023-09-12T14:09:26;11.07;;;9.90;;
62832;SDS011;48891;49.220;6.920;2023-09-12T14:11:52;10.20;;;9.10;;
62832;SDS011;48891;49.220;6.920;2023-09-12T14:14:17;10.30;;;9.07;;
62832;SDS011;48891;49.220;6.920;2023-09-12T14:16:43;11.07;;;9.57;;
62832;SDS011;48891;49.220;6.920;2023-09-12T14:19:08;10.68;;;9.40;;
62832;SDS011;48891;49.220;6.920;2023-09-12T14:21:34;10.52;;;9.43;;
62832;SDS011;48891;49.220;6.920;2023-09-12T14:23:59;10.67;;;9.50;;
62832;SDS011;48891;49.220;6.920;2023-09-12T14:26:24;10.40;;;9.03;;
62832;SDS011;48891;49.220;6.920;2023-09-12T14:28:49;10.98;;;9.52;;
62832;SDS011;48891;49.220;6.920;2023-09-12T14:31:15;11.00;;;9.35;;
62832;SDS011;48891;49.220;6.920;2023-09-12T14:33:40;10.10;;;9.07;;
62832;SDS011;48891;49.220;6.920;2023-09-12T14:36:07;10.97;;;9.87;;
62832;SDS011;48891;49.220;6.920;2023-09-12T14:38:33;9.77;;;8.77;;
62832;SDS011;48891;49.220;6.920;2023-09-12T14:40:58;11.00;;;9.43;;